Time;durP1;ratioP1;P1;durP2;ratioP2;P2;SDS_P1;SDS_P2;PMS_P1;PMS_P2;Temp;Humidity;BMP_temperature;BMP_pressure;BME280_temperature;BME280_humidity;BME280_pressure;Samples;Min_cycle;Max_cycle;Signal;HPM_P1;HPM_P2
2022/09/25 00:01:29;;;;;;;5.90;1.23;;;12.00;89.00;;;;;;5133425;28;20024;-39
2022/09/25 00:03:55;;;;;;;3.38;1.23;;;12.00;89.00;;;;;;5133142;28;20030;-41
2022/09/25 00:06:23;;;;;;;5.82;1.35;;;12.10;89.00;;;;;;5133249;28;20015;-42
2022/09/25 00:08:49;;;;;;;5.18;1.20;;;12.00;89.00;;;;;;5133232;28;20015;-42
2022/09/25 00:11:17;;;;;;;3.15;1.08;;;12.10;89.00;;;;;;5132904;28;20041;-42
2022/09/25 00:13:44;;;;;;;3.78;1.10;;;12.00;89.00;;;;;;5133023;28;20120;-43
2022/09/25 00:16:12;;;;;;;3.45;1.25;;;12.00;89.00;;;;;;5132801;28;20032;-35
2022/09/25 00:21:29;;;;;;;4.82;1.15;;;12.00;89.00;;;;;;5135752;27;20107;-36
2022/09/25 00:24:03;;;;;;;5.50;1.33;;;11.90;89.00;;;;;;5136570;27;20098;-35
2022/09/25 00:26:32;;;;;;;2.60;1.10;;;11.90;89.00;;;;;;5136748;27;20019;-35
2022/09/25 00:29:00;;;;;;;1.48;0.98;;;11.80;88.90;;;;;;5136501;27;20011;-35
2022/09/25 00:31:26;;;;;;;5.03;1.20;;;11.80;89.00;;;;;;5136734;27;20416;-36
2022/09/25 00:33:55;;;;;;;3.92;1.20;;;11.80;89.00;;;;;;5136648;27;20319;-35
2022/09/25 00:36:20;;;;;;;2.92;1.20;;;11.70;88.90;;;;;;5136511;27;20466;-35
2022/09/25 00:38:47;;;;;;;2.83;1.00;;;11.60;89.00;;;;;;5136344;27;20015;-34
2022/09/25 00:41:16;;;;;;;4.13;1.10;;;11.60;89.10;;;;;;5136232;27;20446;-35
2022/09/25 00:43:49;;;;;;;5.10;1.20;;;11.50;89.10;;;;;;5136273;27;20023;-35
2022/09/25 00:46:22;;;;;;;;;;;11.50;89.10;;;;;;5137057;27;20031;-34
2022/09/25 00:49:11;;;;;;;7.07;1.60;;;11.40;89.00;;;;;;5135993;27;19904;-34
2022/09/25 00:51:59;;;;;;;4.10;1.50;;;11.30;89.00;;;;;;5135949;27;20026;-34
2022/09/25 00:54:32;;;;;;;4.40;1.35;;;11.30;89.10;;;;;;5135904;27;20040;-34
2022/09/25 00:57:01;;;;;;;2.42;1.17;;;11.20;89.20;;;;;;5117933;27;20039;-34
2022/09/25 00:59:39;;;;;;;4.93;1.38;;;11.20;89.30;;;;;;5136720;27;20493;-34
2022/09/25 01:02:07;;;;;;;4.35;1.50;;;11.20;89.30;;;;;;5136576;27;20110;-34
2022/09/25 01:04:36;;;;;;;2.92;1.23;;;11.10;89.30;;;;;;5136438;27;20026;-35
2022/09/25 01:07:02;;;;;;;5.32;1.50;;;11.10;89.40;;;;;;5136925;27;20015;-33
2022/09/25 01:09:29;;;;;;;5.78;1.50;;;11.00;89.30;;;;;;5136327;27;20064;-35
2022/09/25 01:11:54;;;;;;;3.67;1.20;;;11.00;89.40;;;;;;5136469;27;20031;-34
2022/09/25 01:14:20;;;;;;;2.38;1.00;;;11.00;89.50;;;;;;5136528;27;20023;-35
2022/09/25 01:16:52;;;;;;;1.65;1.20;;;11.00;89.50;;;;;;5136085;27;20023;-34
2022/09/25 01:19:26;;;;;;;4.90;1.50;;;10.90;89.50;;;;;;5136173;27;20028;-35
2022/09/25 01:21:59;;;;;;;5.68;1.40;;;10.90;89.50;;;;;;5136314;27;20475;-35
2022/09/25 01:24:43;;;;;;;5.63;1.25;;;10.90;89.60;;;;;;5136367;27;20064;-35
2022/09/25 01:27:33;;;;;;;4.50;1.20;;;10.90;89.60;;;;;;5136043;27;20019;-35
2022/09/25 01:30:09;;;;;;;2.80;1.27;;;10.80;89.50;;;;;;5136067;27;20031;-34
2022/09/25 01:32:55;;;;;;;2.75;1.25;;;10.80;89.50;;;;;;5116501;27;20077;-35
2022/09/25 01:35:21;;;;;;;4.28;1.17;;;10.80;89.50;;;;;;5136377;27;20034;-35
2022/09/25 01:37:58;;;;;;;3.45;1.30;;;10.80;89.50;;;;;;5136079;27;20038;-34
2022/09/25 01:40:33;;;;;;;2.90;1.10;;;10.80;89.60;;;;;;5135833;27;20049;-35
2022/09/25 01:43:08;;;;;;;4.53;1.27;;;10.70;89.50;;;;;;5135513;27;20027;-35
2022/09/25 01:46:01;;;;;;;2.22;1.00;;;10.70;89.50;;;;;;5116807;27;20031;-35
2022/09/25 01:48:30;;;;;;;4.90;1.40;;;10.70;89.60;;;;;;5124883;27;20031;-35
2022/09/25 01:51:14;;;;;;;3.33;1.20;;;10.70;89.60;;;;;;5135399;27;20102;-34
2022/09/25 01:53:47;;;;;;;3.10;1.30;;;10.60;89.60;;;;;;5136006;27;20019;-36
2022/09/25 01:56:25;;;;;;;2.63;1.30;;;10.60;89.60;;;;;;5135548;27;20079;-35
2022/09/25 01:58:57;;;;;;;3.47;1.38;;;10.60;89.60;;;;;;5135399;27;20525;-35
2022/09/25 02:01:30;;;;;;;4.90;1.23;;;10.50;89.70;;;;;;5135151;27;20030;-35
2022/09/25 02:04:02;;;;;;;3.38;1.35;;;10.50;89.70;;;;;;5135187;27;20253;-35
2022/09/25 02:06:31;;;;;;;4.38;1.30;;;10.50;89.70;;;;;;5135048;27;20023;-35
2022/09/25 02:09:06;;;;;;;3.05;1.25;;;10.50;89.70;;;;;;5134913;27;20011;-34
2022/09/25 02:11:43;;;;;;;4.68;1.23;;;10.50;89.80;;;;;;5134840;27;20019;-35
2022/09/25 02:14:17;;;;;;;5.18;1.10;;;10.40;89.70;;;;;;5134988;27;20019;-35
2022/09/25 02:16:46;;;;;;;3.17;1.33;;;10.50;89.80;;;;;;5134776;27;20011;-35
2022/09/25 02:22:34;;;;;;;2.00;1.15;;;10.40;89.70;;;;;;5134916;27;20022;-36
2022/09/25 02:25:10;;;;;;;2.97;1.10;;;10.40;89.70;;;;;;5134429;27;20027;-35
2022/09/25 02:27:36;;;;;;;2.47;0.90;;;10.30;89.70;;;;;;5134717;27;20095;-34
2022/09/25 02:30:02;;;;;;;2.88;1.05;;;10.40;90.10;;;;;;5134699;27;20062;-36
2022/09/25 02:32:32;;;;;;;3.63;1.30;;;10.30;89.70;;;;;;5134654;27;20027;-36
2022/09/25 02:35:01;;;;;;;3.33;1.17;;;10.30;89.80;;;;;;5116244;27;20119;-35
2022/09/25 02:37:27;;;;;;;2.67;1.08;;;10.30;89.80;;;;;;5116102;27;20031;-35
2022/09/25 02:39:56;;;;;;;6.57;1.35;;;10.30;89.70;;;;;;5134303;27;20429;-35
2022/09/25 02:42:25;;;;;;;2.92;1.10;;;10.30;89.80;;;;;;5134514;27;20030;-36
2022/09/25 02:45:11;;;;;;;5.03;1.20;;;10.30;89.80;;;;;;5134359;27;20034;-35
2022/09/25 02:48:05;;;;;;;3.28;1.20;;;10.30;89.80;;;;;;5134178;27;20058;-35
2022/09/25 02:50:55;;;;;;;3.55;1.35;;;10.30;89.80;;;;;;5134132;27;20449;-35
2022/09/25 02:53:45;;;;;;;3.75;1.38;;;10.20;89.80;;;;;;5133912;27;20035;-35
2022/09/25 02:56:19;;;;;;;5.57;1.50;;;10.30;89.90;;;;;;5134193;27;20030;-35
2022/09/25 02:58:58;;;;;;;3.03;1.58;;;10.20;89.90;;;;;;5115807;27;20050;-35
2022/09/25 03:01:27;;;;;;;2.60;1.30;;;10.20;89.90;;;;;;5134488;27;20083;-35
2022/09/25 03:03:56;;;;;;;4.13;1.30;;;10.30;89.90;;;;;;5134737;27;20096;-35
2022/09/25 03:06:23;;;;;;;5.53;1.40;;;10.20;89.90;;;;;;5134306;27;20564;-36
2022/09/25 03:08:53;;;;;;;1.85;1.00;;;10.30;90.00;;;;;;5134120;27;20027;-35
2022/09/25 03:11:22;;;;;;;2.40;1.02;;;10.20;90.00;;;;;;5133737;27;20045;-35
2022/09/25 03:14:00;;;;;;;4.20;1.30;;;10.30;90.00;;;;;;5134230;27;20022;-36
2022/09/25 03:16:44;;;;;;;4.30;1.52;;;10.30;90.30;;;;;;5133895;27;20026;-35
2022/09/25 03:19:10;;;;;;;3.33;1.27;;;10.30;90.00;;;;;;5134307;27;20023;-35
2022/09/25 03:21:36;;;;;;;3.38;1.40;;;10.30;90.00;;;;;;5133742;27;20479;-34
2022/09/25 03:24:02;;;;;;;1.65;1.15;;;10.30;90.00;;;;;;5133770;27;20084;-35
2022/09/25 03:26:29;;;;;;;4.47;1.27;;;10.30;90.00;;;;;;5134069;28;20023;-35
2022/09/25 03:28:54;;;;;;;2.03;1.08;;;10.30;90.00;;;;;;5133557;28;20119;-35
2022/09/25 03:31:20;;;;;;;4.72;1.10;;;10.30;90.00;;;;;;5115200;28;20053;-35
2022/09/25 03:33:46;;;;;;;5.18;1.33;;;10.30;90.00;;;;;;5133503;28;20034;-35
2022/09/25 03:36:18;;;;;;;1.90;1.27;;;10.30;90.00;;;;;;5133429;28;20030;-35
2022/09/25 03:38:49;;;;;;;3.17;1.10;;;10.30;90.00;;;;;;5134078;28;20019;-34
2022/09/25 03:41:20;;;;;;;8.45;1.05;;;10.30;90.00;;;;;;5133881;28;20023;-36
2022/09/25 03:43:50;;;;;;;2.63;1.13;;;10.30;90.00;;;;;;5133755;28;20023;-36
2022/09/25 03:46:21;;;;;;;1.80;1.10;;;10.30;90.00;;;;;;5133564;28;20035;-34
2022/09/25 03:48:46;;;;;;;3.42;1.10;;;10.30;90.00;;;;;;5133641;28;20019;-34
2022/09/25 03:51:12;;;;;;;2.80;1.30;;;10.30;90.00;;;;;;5133559;28;20034;-34
2022/09/25 03:53:39;;;;;;;4.78;1.35;;;10.30;90.00;;;;;;5133802;28;20029;-35
2022/09/25 03:56:09;;;;;;;3.15;1.30;;;10.20;90.30;;;;;;5136016;27;20378;-35
2022/09/25 03:58:35;;;;;;;2.78;1.17;;;10.20;90.00;;;;;;5137268;27;20047;-34
2022/09/25 04:01:01;;;;;;;1.50;1.40;;;10.20;90.00;;;;;;5137610;27;20106;-35
2022/09/25 04:03:28;;;;;;;1.88;1.38;;;10.20;90.10;;;;;;5137726;27;20481;-35
2022/09/25 04:05:55;;;;;;;2.63;1.30;;;10.20;90.10;;;;;;5137195;27;20026;-34
2022/09/25 04:08:24;;;;;;;1.85;1.33;;;10.20;90.10;;;;;;5137252;27;20023;-34
2022/09/25 04:10:49;;;;;;;4.72;1.60;;;10.20;90.10;;;;;;5137414;27;20420;-34
2022/09/25 04:13:15;;;;;;;4.00;1.50;;;10.10;90.10;;;;;;5137387;27;20011;-34
2022/09/25 04:15:41;;;;;;;1.52;1.42;;;10.20;90.10;;;;;;5137596;27;20011;-36
2022/09/25 04:18:08;;;;;;;3.67;1.42;;;10.10;90.10;;;;;;5118757;27;20023;-34
2022/09/25 04:20:34;;;;;;;3.30;1.83;;;10.10;90.10;;;;;;5137139;27;20117;-34
2022/09/25 04:23:00;;;;;;;4.88;1.33;;;10.10;90.10;;;;;;5137319;27;20088;-35
2022/09/25 04:25:26;;;;;;;3.80;1.60;;;10.10;90.20;;;;;;5137170;27;20027;-35
2022/09/25 04:27:55;;;;;;;2.65;1.45;;;10.00;90.20;;;;;;5118652;27;20015;-36
2022/09/25 04:30:26;;;;;;;4.70;1.45;;;10.00;90.20;;;;;;5137183;27;20019;-35
2022/09/25 04:35:36;;;;;;;3.40;1.65;;;10.00;90.20;;;;;;5137041;27;20126;-35
2022/09/25 04:38:02;;;;;;;2.90;1.40;;;10.00;90.20;;;;;;5136659;27;20522;-35
2022/09/25 04:40:29;;;;;;;3.92;1.60;;;10.00;90.20;;;;;;5137093;27;20027;-34
2022/09/25 04:42:59;;;;;;;3.10;1.40;;;10.00;90.50;;;;;;5136688;27;20023;-35
2022/09/25 04:45:26;;;;;;;3.58;1.55;;;10.00;90.30;;;;;;5136582;27;20039;-33
2022/09/25 04:47:57;;;;;;;3.00;1.50;;;10.00;90.30;;;;;;5136950;27;20073;-35
2022/09/25 04:50:23;;;;;;;4.82;1.38;;;10.00;90.60;;;;;;5118253;27;20019;-34
2022/09/25 04:52:50;;;;;;;3.38;1.52;;;9.90;90.30;;;;;;5136525;27;20382;-34
2022/09/25 04:55:17;;;;;;;3.47;1.60;;;9.90;90.30;;;;;;5136761;27;20042;-34
2022/09/25 04:57:42;;;;;;;4.82;1.63;;;9.90;90.30;;;;;;5136054;27;20153;-33
2022/09/25 05:00:09;;;;;;;4.53;1.80;;;9.90;90.30;;;;;;5136416;27;20023;-34
2022/09/25 05:02:35;;;;;;;7.75;1.50;;;9.90;90.30;;;;;;5136385;27;20041;-33
2022/09/25 05:05:02;;;;;;;3.70;1.70;;;9.90;90.30;;;;;;5118103;27;20025;-34
2022/09/25 05:07:27;;;;;;;4.45;1.90;;;9.90;90.40;;;;;;5135023;27;20535;-35
2022/09/25 05:09:53;;;;;;;3.17;1.80;;;10.00;90.40;;;;;;5118433;27;20015;-35
2022/09/25 05:12:19;;;;;;;5.47;1.58;;;10.00;90.40;;;;;;5136417;27;20020;-35
2022/09/25 05:14:45;;;;;;;3.70;1.65;;;10.00;90.40;;;;;;5136570;27;20055;-36
2022/09/25 05:17:10;;;;;;;4.88;1.50;;;10.00;90.40;;;;;;5136029;27;20065;-38
2022/09/25 05:19:37;;;;;;;4.57;2.13;;;10.00;90.40;;;;;;5136095;27;20027;-34
2022/09/25 05:22:02;;;;;;;5.65;1.85;;;9.90;90.40;;;;;;5136224;27;20487;-36
2022/09/25 05:24:29;;;;;;;3.60;2.05;;;9.90;90.40;;;;;;5136042;27;20028;-35
2022/09/25 05:26:56;;;;;;;4.18;1.85;;;9.90;90.40;;;;;;5135689;27;20023;-35
2022/09/25 05:29:21;;;;;;;2.08;1.63;;;9.90;90.50;;;;;;5135433;27;20015;-35
2022/09/25 05:31:48;;;;;;;4.30;1.75;;;9.90;90.50;;;;;;5135477;27;20027;-34
2022/09/25 05:34:14;;;;;;;3.10;1.90;;;9.80;90.50;;;;;;5117211;27;20015;-35
2022/09/25 05:36:40;;;;;;;2.20;1.67;;;9.90;90.50;;;;;;5135641;27;20027;-34
2022/09/25 05:39:07;;;;;;;2.50;1.60;;;9.80;90.50;;;;;;5136235;27;20399;-34
2022/09/25 05:41:33;;;;;;;2.97;1.73;;;9.80;90.50;;;;;;5135805;27;20015;-34
2022/09/25 05:44:01;;;;;;;1.40;1.30;;;9.80;90.50;;;;;;5135585;27;20102;-35
2022/09/25 05:46:27;;;;;;;1.45;1.30;;;9.70;90.50;;;;;;5135821;27;20084;-34
2022/09/25 05:48:53;;;;;;;1.50;1.33;;;9.80;90.60;;;;;;5135552;27;20412;-34
2022/09/25 05:51:19;;;;;;;2.40;1.17;;;9.70;90.50;;;;;;5135870;27;20026;-34
2022/09/25 05:53:46;;;;;;;2.15;1.20;;;9.70;90.50;;;;;;5116891;27;20470;-35
2022/09/25 05:56:12;;;;;;;2.55;1.17;;;9.70;90.50;;;;;;5135223;27;20027;-35
2022/09/25 05:58:38;;;;;;;1.83;1.30;;;9.60;90.50;;;;;;5135082;27;20039;-34
2022/09/25 06:01:05;;;;;;;1.88;1.02;;;9.60;90.50;;;;;;5135339;27;20486;-35
2022/09/25 06:03:31;;;;;;;1.48;1.30;;;9.50;90.50;;;;;;5135152;27;20164;-35
2022/09/25 06:05:59;;;;;;;2.65;1.50;;;9.50;90.50;;;;;;5135222;27;20023;-35
2022/09/25 06:08:26;;;;;;;2.70;1.45;;;9.50;90.60;;;;;;5135288;27;20011;-35
2022/09/25 06:10:55;;;;;;;2.03;1.80;;;9.50;90.60;;;;;;5135159;27;20076;-34
2022/09/25 06:13:22;;;;;;;1.95;1.77;;;9.50;90.60;;;;;;5134790;27;20099;-34
2022/09/25 06:15:51;;;;;;;2.17;1.60;;;9.50;90.60;;;;;;5134620;27;20423;-35
2022/09/25 06:18:17;;;;;;;1.63;1.52;;;9.50;90.60;;;;;;5134276;27;20034;-34
2022/09/25 06:20:43;;;;;;;1.77;1.50;;;9.50;90.60;;;;;;5134823;27;20047;-35
2022/09/25 06:23:09;;;;;;;2.03;1.60;;;9.50;90.60;;;;;;5134736;27;20057;-35
2022/09/25 06:25:37;;;;;;;2.58;2.22;;;9.50;90.70;;;;;;5134631;27;20409;-34
2022/09/25 06:28:03;;;;;;;2.20;1.80;;;9.50;90.70;;;;;;5134722;27;20023;-34
2022/09/25 06:30:34;;;;;;;3.30;1.70;;;9.50;90.70;;;;;;5134402;27;20072;-35
2022/09/25 06:33:06;;;;;;;1.63;1.30;;;9.60;90.70;;;;;;5134473;27;20023;-34
2022/09/25 06:35:33;;;;;;;3.25;1.90;;;9.60;90.70;;;;;;5134455;27;20078;-34
2022/09/25 06:37:59;;;;;;;3.50;1.95;;;9.60;90.70;;;;;;5134702;27;20055;-35
2022/09/25 06:40:26;;;;;;;1.50;1.40;;;9.70;90.70;;;;;;5134371;27;20027;-34
2022/09/25 06:42:57;;;;;;;1.58;1.48;;;9.70;90.60;;;;;;5134546;27;20030;-36
2022/09/25 06:45:23;;;;;;;3.83;1.92;;;9.70;90.60;;;;;;5134612;27;20423;-36
2022/09/25 06:47:48;;;;;;;1.80;1.60;;;9.80;90.60;;;;;;5134728;27;20038;-34
2022/09/25 06:50:14;;;;;;;1.90;1.35;;;9.80;90.70;;;;;;5134350;27;20019;-35
2022/09/25 06:52:46;;;;;;;2.22;1.70;;;9.80;90.70;;;;;;5134505;27;20027;-35
2022/09/25 06:55:11;;;;;;;4.40;1.80;;;9.90;90.70;;;;;;5134124;27;20027;-37
2022/09/25 06:57:37;;;;;;;4.00;1.70;;;10.00;90.70;;;;;;5134120;27;20405;-34
2022/09/25 07:00:04;;;;;;;3.13;1.80;;;10.00;90.60;;;;;;5116103;27;20027;-35
2022/09/25 07:05:15;;;;;;;1.83;1.20;;;10.20;90.70;;;;;;5133449;27;20041;-35
2022/09/25 07:07:41;;;;;;;1.50;1.30;;;10.20;90.60;;;;;;5133712;27;20027;-34
2022/09/25 07:10:07;;;;;;;5.05;1.52;;;10.30;90.50;;;;;;5133897;27;20019;-35
2022/09/25 07:12:33;;;;;;;2.22;1.45;;;10.30;90.50;;;;;;5133873;27;20030;-33
2022/09/25 07:14:58;;;;;;;1.80;1.58;;;10.40;90.50;;;;;;5133993;27;20023;-35
2022/09/25 07:17:24;;;;;;;1.50;1.40;;;10.40;90.50;;;;;;5134160;27;20023;-36
2022/09/25 07:19:49;;;;;;;2.47;1.40;;;10.50;90.50;;;;;;5133602;27;20026;-35
2022/09/25 07:22:15;;;;;;;1.70;1.33;;;10.60;90.40;;;;;;5115006;28;20019;-34
2022/09/25 07:24:40;;;;;;;3.72;1.42;;;10.60;90.40;;;;;;5133554;27;20027;-35
2022/09/25 07:27:06;;;;;;;1.42;1.27;;;10.70;90.40;;;;;;5133694;28;20118;-34
2022/09/25 07:29:34;;;;;;;1.63;1.30;;;10.70;90.30;;;;;;5133600;27;20047;-36
2022/09/25 07:32:00;;;;;;;2.15;1.17;;;10.80;90.30;;;;;;5134090;28;20437;-35
2022/09/25 07:34:26;;;;;;;4.88;1.40;;;10.90;90.30;;;;;;5134106;28;20065;-36
2022/09/25 07:36:53;;;;;;;2.88;1.10;;;10.90;90.20;;;;;;5133792;28;20027;-35
2022/09/25 07:39:18;;;;;;;2.83;1.40;;;11.00;90.20;;;;;;5134188;28;20020;-36
2022/09/25 07:41:45;;;;;;;1.92;1.40;;;11.00;90.20;;;;;;5133765;28;20019;-35
2022/09/25 07:44:10;;;;;;;2.47;1.10;;;11.10;90.10;;;;;;5133643;28;20034;-36
2022/09/25 07:46:41;;;;;;;3.85;1.15;;;11.10;90.10;;;;;;5133615;28;20361;-35
2022/09/25 07:49:07;;;;;;;3.00;1.40;;;11.20;90.00;;;;;;5133728;28;20046;-36
2022/09/25 07:51:32;;;;;;;2.17;1.10;;;11.20;90.00;;;;;;5133575;28;20485;-34
2022/09/25 07:53:58;;;;;;;3.42;1.10;;;11.20;90.00;;;;;;5133520;28;20019;-36
2022/09/25 07:56:23;;;;;;;1.30;1.20;;;11.30;90.00;;;;;;5133318;28;20466;-35
2022/09/25 07:58:52;;;;;;;2.90;1.15;;;11.30;89.80;;;;;;5133495;28;20051;-35
2022/09/25 08:01:18;;;;;;;2.85;1.10;;;11.30;89.80;;;;;;5133722;28;20053;-35
2022/09/25 08:03:43;;;;;;;2.53;1.15;;;11.30;89.70;;;;;;5133372;28;20039;-34
2022/09/25 08:06:12;;;;;;;2.45;1.35;;;11.40;89.60;;;;;;5133114;28;20030;-35
2022/09/25 08:08:39;;;;;;;3.17;1.20;;;11.50;89.60;;;;;;5133340;28;20351;-34
2022/09/25 08:11:06;;;;;;;2.67;1.00;;;11.50;89.40;;;;;;5133201;28;20057;-36
2022/09/25 08:13:33;;;;;;;2.35;1.10;;;11.60;89.40;;;;;;5133210;28;20071;-33
2022/09/25 08:16:01;;;;;;;3.15;1.73;;;11.70;89.30;;;;;;5133028;28;20443;-35
2022/09/25 08:18:27;;;;;;;3.13;1.30;;;11.70;89.10;;;;;;5114734;28;20363;-35
2022/09/25 08:20:52;;;;;;;2.88;1.40;;;11.80;89.00;;;;;;5115298;28;20156;-34
2022/09/25 08:23:18;;;;;;;4.38;1.38;;;11.90;89.00;;;;;;5133563;28;20023;-35
2022/09/25 08:25:48;;;;;;;2.80;1.20;;;11.90;88.70;;;;;;5133220;28;20034;-36
2022/09/25 08:28:14;;;;;;;2.35;1.05;;;12.00;88.60;;;;;;5133550;28;20038;-35
2022/09/25 08:30:42;;;;;;;1.52;0.90;;;12.10;88.60;;;;;;5133397;28;20023;-35
2022/09/25 08:33:11;;;;;;;2.92;1.02;;;12.10;88.50;;;;;;5133613;28;20098;-35
2022/09/25 08:35:37;;;;;;;1.13;0.90;;;12.20;88.40;;;;;;5115317;28;20100;-34
2022/09/25 08:38:04;;;;;;;2.30;0.98;;;12.30;88.20;;;;;;5133385;28;20489;-35
2022/09/25 08:40:31;;;;;;;4.68;1.50;;;12.40;88.00;;;;;;5133509;28;20023;-34
2022/09/25 08:42:57;;;;;;;2.40;0.90;;;12.50;88.00;;;;;;5136727;27;20443;-34
2022/09/25 08:51:26;;;;;;;3.78;1.00;;;12.60;87.70;;;;;;5136461;27;20106;-35
2022/09/25 08:53:52;;;;;;;1.55;0.93;;;12.70;87.70;;;;;;5136494;27;20023;-35
2022/09/25 08:56:18;;;;;;;4.07;0.90;;;12.80;87.70;;;;;;5136476;27;20042;-35
2022/09/25 08:58:49;;;;;;;3.33;1.05;;;12.90;87.70;;;;;;5136182;27;20043;-35
2022/09/25 09:01:24;;;;;;;0.88;0.77;;;12.90;87.50;;;;;;5136615;27;20030;-35
2022/09/25 09:03:56;;;;;;;2.33;1.05;;;13.00;87.50;;;;;;5118082;27;20028;-35
2022/09/25 09:06:24;;;;;;;3.28;0.70;;;13.10;87.40;;;;;;5136081;27;20023;-36
2022/09/25 09:09:01;;;;;;;3.08;1.23;;;13.10;87.30;;;;;;5135861;27;20018;-35
2022/09/25 09:11:39;;;;;;;2.35;0.85;;;13.20;87.10;;;;;;5135858;27;20107;-36
2022/09/25 09:14:09;;;;;;;2.88;0.80;;;13.20;86.80;;;;;;5136050;27;20495;-35
2022/09/25 09:16:35;;;;;;;2.33;0.90;;;13.30;86.70;;;;;;5135947;27;20043;-35
2022/09/25 09:19:04;;;;;;;3.05;0.82;;;13.30;86.50;;;;;;5135561;27;20023;-36
2022/09/25 09:21:40;;;;;;;3.15;0.82;;;13.40;86.50;;;;;;5117169;27;20022;-36
2022/09/25 09:24:06;;;;;;;3.58;0.80;;;13.50;86.40;;;;;;5135653;27;20106;-35
2022/09/25 09:27:06;;;;;;;2.65;0.70;;;13.50;86.20;;;;;;5135567;27;20118;-35
2022/09/25 09:29:49;;;;;;;2.67;0.80;;;13.60;86.10;;;;;;5135339;27;20015;-36
2022/09/25 09:32:53;;;;;;;2.05;0.70;;;13.70;85.90;;;;;;5135745;27;20019;-34
2022/09/25 09:35:56;;;;;;;2.92;0.68;;;13.70;85.70;;;;;;5135750;27;20533;-34
2022/09/25 09:38:43;;;;;;;2.42;0.80;;;13.80;85.60;;;;;;5135199;27;20031;-35
2022/09/25 09:41:53;;;;;;;1.90;0.60;;;13.90;85.50;;;;;;5116525;27;20035;-34
2022/09/25 09:44:50;;;;;;;3.35;0.60;;;13.90;85.20;;;;;;5114169;27;20039;-34
2022/09/25 09:47:37;;;;;;;2.38;0.73;;;14.00;85.00;;;;;;5135390;27;20019;-33
2022/09/25 09:50:24;;;;;;;2.00;0.60;;;14.10;84.70;;;;;;5134843;27;20034;-33
2022/09/25 09:53:00;;;;;;;2.17;0.73;;;14.10;84.20;;;;;;5134103;27;20050;-33
2022/09/25 09:55:49;;;;;;;2.78;0.70;;;14.20;83.80;;;;;;5135023;27;20026;-34
2022/09/25 09:58:38;;;;;;;0.98;0.57;;;14.30;83.40;;;;;;5134814;27;20051;-35
2022/09/25 10:01:04;;;;;;;1.80;0.52;;;14.40;83.10;;;;;;5134494;27;20023;-28
2022/09/25 10:03:36;;;;;;;2.50;0.70;;;14.40;82.70;;;;;;5135189;27;20057;-28
2022/09/25 10:06:07;;;;;;;2.13;0.70;;;14.50;82.40;;;;;;5135013;27;20108;-31
2022/09/25 10:08:34;;;;;;;1.42;0.68;;;14.60;82.00;;;;;;5134643;27;20037;-36
2022/09/25 10:11:05;;;;;;;0.70;0.35;;;14.70;82.00;;;;;;5134901;27;20506;-29
2022/09/25 10:13:35;;;;;;;2.63;0.50;;;14.80;81.80;;;;;;5134900;27;20173;-28
2022/09/25 10:16:15;;;;;;;2.53;0.63;;;14.80;81.60;;;;;;5134826;27;20102;-29
2022/09/25 10:18:59;;;;;;;2.00;0.45;;;15.00;81.20;;;;;;5134756;27;20016;-31
2022/09/25 10:21:30;;;;;;;1.05;0.50;;;15.10;80.40;;;;;;5134923;27;20379;-27
2022/09/25 10:24:01;;;;;;;1.38;0.70;;;15.20;79.50;;;;;;5134486;27;20518;-29
2022/09/25 10:26:37;;;;;;;3.58;0.60;;;15.30;79.30;;;;;;5134662;27;20344;-29
2022/09/25 10:29:23;;;;;;;2.55;0.77;;;15.30;79.00;;;;;;5115833;27;20019;-29
2022/09/25 10:31:58;;;;;;;3.00;0.70;;;15.40;78.60;;;;;;5134412;27;20068;-29
2022/09/25 10:34:26;;;;;;;1.13;0.50;;;15.40;78.00;;;;;;5134326;27;20380;-34
2022/09/25 10:36:53;;;;;;;1.50;0.55;;;15.40;78.10;;;;;;5134430;27;20355;-29
2022/09/25 10:39:35;;;;;;;1.80;0.50;;;15.40;78.10;;;;;;5134333;27;20026;-29
2022/09/25 10:42:07;;;;;;;3.13;0.82;;;15.40;78.10;;;;;;5134000;27;20072;-33
2022/09/25 10:44:35;;;;;;;1.58;0.50;;;15.30;78.10;;;;;;5134693;27;20034;-30
2022/09/25 10:50:20;;;;;;;1.90;0.60;;;15.40;77.90;;;;;;5134245;27;20072;-28
2022/09/25 10:52:50;;;;;;;3.25;0.60;;;15.50;77.50;;;;;;5133929;27;20023;-29
2022/09/25 10:55:29;;;;;;;2.67;0.52;;;15.60;77.30;;;;;;5133685;27;20019;-40
2022/09/25 10:58:05;;;;;;;2.00;0.52;;;15.70;76.50;;;;;;5133644;27;20066;-38
2022/09/25 11:00:38;;;;;;;3.03;0.40;;;15.90;76.60;;;;;;5115716;27;20450;-40
2022/09/25 11:03:05;;;;;;;1.40;0.50;;;16.00;76.30;;;;;;5133959;27;20106;-27
2022/09/25 11:05:34;;;;;;;2.00;0.60;;;16.00;76.20;;;;;;5080493;27;20027;-26
2022/09/25 11:08:04;;;;;;;1.10;0.50;;;16.00;75.60;;;;;;5133683;27;20066;-38
2022/09/25 11:10:35;;;;;;;2.10;0.50;;;15.90;75.50;;;;;;5133924;27;20106;-41
2022/09/25 11:13:06;;;;;;;3.17;0.60;;;15.90;75.30;;;;;;5133805;27;20021;-43
2022/09/25 11:15:33;;;;;;;1.27;0.50;;;15.80;75.50;;;;;;5115342;27;20027;-28
2022/09/25 11:17:59;;;;;;;0.77;0.40;;;15.80;75.50;;;;;;5133765;27;20034;-26
2022/09/25 11:20:28;;;;;;;3.17;0.70;;;15.90;75.30;;;;;;5133762;27;20450;-28
2022/09/25 11:23:13;;;;;;;1.48;0.45;;;16.00;75.10;;;;;;5133525;27;20027;-25
2022/09/25 11:26:09;;;;;;;1.17;0.50;;;16.00;73.80;;;;;;5133933;27;20066;-32
2022/09/25 11:28:51;;;;;;;0.90;0.60;;;16.10;72.20;;;;;;5133812;27;20039;-25
2022/09/25 11:31:25;;;;;;;1.25;0.50;;;16.20;71.90;;;;;;5133529;28;20047;-27
2022/09/25 11:34:26;;;;;;;1.60;0.50;;;16.30;71.00;;;;;;5133920;28;20455;-26
2022/09/25 11:37:17;;;;;;;1.70;0.40;;;16.40;70.90;;;;;;5134015;28;20039;-27
2022/09/25 11:42:50;;;;;;;1.25;0.40;;;16.70;69.50;;;;;;5133524;28;20035;-25
2022/09/25 11:45:20;;;;;;;0.60;0.40;;;16.80;69.30;;;;;;5133674;28;20437;-25
2022/09/25 11:47:54;;;;;;;0.93;0.38;;;16.80;69.00;;;;;;5133045;28;20371;-24
2022/09/25 11:50:26;;;;;;;1.42;0.68;;;16.90;69.00;;;;;;5115766;28;20023;-25
2022/09/25 11:53:18;;;;;;;1.58;0.40;;;16.90;68.90;;;;;;5133442;28;20416;-27
2022/09/25 11:56:08;;;;;;;3.13;0.40;;;16.90;68.80;;;;;;5133169;28;20027;-25
2022/09/25 11:59:06;;;;;;;2.15;0.50;;;16.90;67.10;;;;;;5133129;28;20047;-25
2022/09/25 12:01:44;;;;;;;1.20;0.57;;;16.80;67.90;;;;;;5133504;28;20042;-27
2022/09/25 12:04:32;;;;;;;0.77;0.40;;;16.50;68.30;;;;;;5133430;28;20046;-26
2022/09/25 12:07:16;;;;;;;2.30;0.65;;;16.40;68.90;;;;;;5133694;28;20039;-26
2022/09/25 12:10:21;;;;;;;2.10;0.47;;;16.30;68.30;;;;;;5133550;28;20496;-28
2022/09/25 12:13:12;;;;;;;1.58;0.50;;;16.30;68.90;;;;;;5133288;28;20092;-27
2022/09/25 12:16:17;;;;;;;0.73;0.50;;;16.40;68.30;;;;;;5133155;27;20367;-29
2022/09/25 12:19:04;;;;;;;2.13;0.50;;;16.30;67.80;;;;;;5118334;27;20110;-28
2022/09/25 12:21:40;;;;;;;2.20;0.60;;;16.30;68.00;;;;;;5136811;27;20034;-27
2022/09/25 12:24:42;;;;;;;2.47;0.70;;;16.20;68.40;;;;;;5136721;27;20528;-26
2022/09/25 12:27:17;;;;;;;2.40;0.60;;;16.20;68.80;;;;;;5136813;27;20039;-26
2022/09/25 12:30:10;;;;;;;2.85;0.60;;;16.20;69.10;;;;;;5136976;27;20034;-30
2022/09/25 12:32:52;;;;;;;2.67;0.68;;;16.10;69.30;;;;;;5137130;27;20378;-27
2022/09/25 12:35:46;;;;;;;2.80;0.73;;;16.10;69.70;;;;;;5136957;27;20042;-41
2022/09/25 12:38:24;;;;;;;3.95;0.75;;;16.20;69.90;;;;;;5097268;27;20035;-38
2022/09/25 12:40:56;;;;;;;1.95;0.60;;;16.30;69.70;;;;;;5136878;27;20027;-41
2022/09/25 12:43:40;;;;;;;1.88;0.60;;;16.40;69.40;;;;;;5136397;27;20122;-40
2022/09/25 12:46:15;;;;;;;1.50;0.52;;;16.60;68.90;;;;;;5136129;27;20106;-40
2022/09/25 12:48:44;;;;;;;1.73;0.40;;;16.80;68.90;;;;;;5136379;27;20034;-41
2022/09/25 12:51:23;;;;;;;1.40;0.57;;;17.00;68.60;;;;;;5136666;27;20512;-40
2022/09/25 12:54:01;;;;;;;0.73;0.50;;;17.20;68.20;;;;;;5136775;27;20015;-40
2022/09/25 12:56:47;;;;;;;2.45;0.50;;;17.40;68.20;;;;;;5136312;27;20019;-40
2022/09/25 12:59:20;;;;;;;1.95;0.50;;;17.70;67.50;;;;;;5137034;27;20088;-38
2022/09/25 13:02:08;;;;;;;1.95;0.70;;;17.80;67.20;;;;;;5136986;27;20106;-42
2022/09/25 13:05:12;;;;;;;1.02;0.30;;;18.00;66.30;;;;;;5136197;27;20019;-42
2022/09/25 13:07:57;;;;;;;2.00;0.50;;;18.10;66.00;;;;;;5102440;27;20114;-42
2022/09/25 13:10:35;;;;;;;1.88;0.50;;;18.10;66.10;;;;;;5136398;27;20060;-42
2022/09/25 13:13:04;;;;;;;2.95;0.60;;;18.10;65.90;;;;;;5136627;27;20087;-43
2022/09/25 13:15:37;;;;;;;1.10;0.50;;;18.10;65.80;;;;;;5136102;27;20327;-41
2022/09/25 13:18:05;;;;;;;1.27;0.50;;;18.10;65.70;;;;;;5136097;27;20030;-41
2022/09/25 13:20:35;;;;;;;1.00;0.47;;;18.20;65.80;;;;;;5136740;27;20042;-40
2022/09/25 13:23:10;;;;;;;1.15;0.47;;;18.30;64.90;;;;;;5135898;27;20027;-40
2022/09/25 13:25:56;;;;;;;3.20;0.63;;;18.40;64.90;;;;;;5135973;27;20027;-41
2022/09/25 13:28:27;;;;;;;0.88;0.40;;;18.50;64.60;;;;;;5134852;27;20023;-39
2022/09/25 13:31:04;;;;;;;2.58;0.60;;;18.60;64.80;;;;;;5136175;27;20031;-43
2022/09/25 13:33:46;;;;;;;2.25;0.40;;;18.70;63.90;;;;;;5135886;27;20478;-42
2022/09/25 13:36:22;;;;;;;1.17;0.20;;;18.80;63.10;;;;;;5135367;27;20019;-43
2022/09/25 13:41:47;;;;;;;1.30;0.40;;;18.60;61.30;;;;;;5135603;27;20038;-42